sensor_id;sensor_type;location;lat;lon;timestamp;pressure;altitude;pressure_sealevel;temperature;humidity
66479;BME280;53294;47.912;13.526;2023-05-23T00:01:13;95741.19;;;19.13;49.90
66479;BME280;53294;47.912;13.526;2023-05-23T00:03:42;95733.25;;;19.04;49.91
66479;BME280;53294;47.912;13.526;2023-05-23T00:06:09;95733.28;;;19.08;49.77
66479;BME280;53294;47.912;13.526;2023-05-23T00:08:36;95742.44;;;18.96;49.82
66479;BME280;53294;47.912;13.526;2023-05-23T00:11:03;95749.00;;;18.56;52.11
66479;BME280;53294;47.912;13.526;2023-05-23T00:13:29;95738.97;;;18.40;52.55
66479;BME280;53294;47.912;13.526;2023-05-23T00:16:00;95742.25;;;18.50;52.37
66479;BME280;53294;47.912;13.526;2023-05-23T00:18:27;95737.97;;;18.68;51.09
66479;BME280;53294;47.912;13.526;2023-05-23T00:20:56;95741.13;;;18.70;51.15
66479;BME280;53294;47.912;13.526;2023-05-23T00:23:22;95742.84;;;18.59;51.19
66479;BME280;53294;47.912;13.526;2023-05-23T00:25:50;95739.47;;;18.65;50.95
66479;BME280;53294;47.912;13.526;2023-05-23T00:28:21;95738.53;;;18.58;51.00
66479;BME280;53294;47.912;13.526;2023-05-23T00:30:48;95746.69;;;18.38;51.86
66479;BME280;53294;47.912;13.526;2023-05-23T00:33:15;95742.09;;;18.42;51.36
66479;BME280;53294;47.912;13.526;2023-05-23T00:35:42;95741.56;;;18.17;52.23
66479;BME280;53294;47.912;13.526;2023-05-23T00:38:09;95761.47;;;18.21;52.36
66479;BME280;53294;47.912;13.526;2023-05-23T00:40:37;95762.78;;;18.27;52.17
66479;BME280;53294;47.912;13.526;2023-05-23T00:43:03;95768.81;;;18.21;52.41
66479;BME280;53294;47.912;13.526;2023-05-23T00:45:30;95773.19;;;18.25;52.44
66479;BME280;53294;47.912;13.526;2023-05-23T00:47:57;95773.66;;;18.27;52.23
66479;BME280;53294;47.912;13.526;2023-05-23T00:50:26;95776.13;;;18.17;52.75
66479;BME280;53294;47.912;13.526;2023-05-23T00:52:59;95774.06;;;18.29;51.83
66479;BME280;53294;47.912;13.526;2023-05-23T00:55:27;95771.41;;;18.33;51.41
66479;BME280;53294;47.912;13.526;2023-05-23T00:57:54;95780.84;;;18.20;52.54
66479;BME280;53294;47.912;13.526;2023-05-23T01:00:24;95775.19;;;18.28;51.53
66479;BME280;53294;47.912;13.526;2023-05-23T01:02:51;95776.63;;;18.22;51.72
66479;BME280;53294;47.912;13.526;2023-05-23T01:05:19;95773.41;;;18.17;51.62
66479;BME280;53294;47.912;13.526;2023-05-23T01:07:49;95771.44;;;17.98;53.54
66479;BME280;53294;47.912;13.526;2023-05-23T01:10:18;95773.31;;;18.13;51.91
66479;BME280;53294;47.912;13.526;2023-05-23T01:15:49;95778.97;;;18.24;50.59
66479;BME280;53294;47.912;13.526;2023-05-23T01:18:23;95781.03;;;18.11;51.31
66479;BME280;53294;47.912;13.526;2023-05-23T01:20:54;95781.13;;;17.99;51.99
66479;BME280;53294;47.912;13.526;2023-05-23T01:23:41;95784.47;;;17.92;51.83
66479;BME280;53294;47.912;13.526;2023-05-23T01:26:27;95790.25;;;17.74;53.45
66479;BME280;53294;47.912;13.526;2023-05-23T01:29:03;95789.00;;;17.88;52.15
66479;BME280;53294;47.912;13.526;2023-05-23T01:31:38;95793.50;;;17.64;53.71
66479;BME280;53294;47.912;13.526;2023-05-23T01:34:09;95791.53;;;17.65;53.49
66479;BME280;53294;47.912;13.526;2023-05-23T01:36:40;95783.22;;;17.41;54.08
66479;BME280;53294;47.912;13.526;2023-05-23T01:39:08;95796.28;;;17.52;53.64
66479;BME280;53294;47.912;13.526;2023-05-23T01:41:35;95786.81;;;17.46;53.83
66479;BME280;53294;47.912;13.526;2023-05-23T01:44:02;95783.47;;;17.20;55.00
66479;BME280;53294;47.912;13.526;2023-05-23T01:46:30;95790.00;;;17.19;54.70
66479;BME280;53294;47.912;13.526;2023-05-23T01:49:00;95800.38;;;17.46;53.35
66479;BME280;53294;47.912;13.526;2023-05-23T01:51:27;95790.84;;;17.36;53.82
66479;BME280;53294;47.912;13.526;2023-05-23T01:53:54;95796.31;;;17.08;56.02
66479;BME280;53294;47.912;13.526;2023-05-23T01:56:22;95794.31;;;17.20;54.08
66479;BME280;53294;47.912;13.526;2023-05-23T01:58:49;95793.88;;;17.18;54.58
66479;BME280;53294;47.912;13.526;2023-05-23T02:01:16;95804.88;;;17.10;55.18
66479;BME280;53294;47.912;13.526;2023-05-23T02:03:43;95788.75;;;17.01;55.64
66479;BME280;53294;47.912;13.526;2023-05-23T02:06:10;95785.94;;;16.97;55.56
66479;BME280;53294;47.912;13.526;2023-05-23T02:08:37;95793.66;;;16.95;55.55
66479;BME280;53294;47.912;13.526;2023-05-23T02:11:04;95793.34;;;17.13;54.42
66479;BME280;53294;47.912;13.526;2023-05-23T02:13:31;95793.34;;;17.13;54.82
66479;BME280;53294;47.912;13.526;2023-05-23T02:15:57;95804.84;;;16.81;55.89
66479;BME280;53294;47.912;13.526;2023-05-23T02:18:24;95798.09;;;16.88;55.65
66479;BME280;53294;47.912;13.526;2023-05-23T02:20:55;95798.91;;;17.04;55.43
66479;BME280;53294;47.912;13.526;2023-05-23T02:23:22;95806.66;;;17.18;54.30
66479;BME280;53294;47.912;13.526;2023-05-23T02:25:48;95801.31;;;16.93;55.68
66479;BME280;53294;47.912;13.526;2023-05-23T02:28:15;95800.06;;;17.03;55.29
66479;BME280;53294;47.912;13.526;2023-05-23T02:30:42;95797.28;;;17.15;54.31
66479;BME280;53294;47.912;13.526;2023-05-23T02:33:08;95795.63;;;17.11;54.60
66479;BME280;53294;47.912;13.526;2023-05-23T02:35:36;95794.03;;;17.10;55.06
66479;BME280;53294;47.912;13.526;2023-05-23T02:38:03;95791.94;;;17.19;54.12
66479;BME280;53294;47.912;13.526;2023-05-23T02:40:29;95804.63;;;17.15;55.13
66479;BME280;53294;47.912;13.526;2023-05-23T02:42:56;95795.56;;;16.95;55.17
66479;BME280;53294;47.912;13.526;2023-05-23T02:45:23;95800.63;;;16.96;55.74
66479;BME280;53294;47.912;13.526;2023-05-23T02:47:50;95798.88;;;16.88;55.61
66479;BME280;53294;47.912;13.526;2023-05-23T02:50:16;95798.66;;;16.68;56.16
66479;BME280;53294;47.912;13.526;2023-05-23T02:52:43;95801.88;;;16.58;57.94
66479;BME280;53294;47.912;13.526;2023-05-23T02:55:10;95802.38;;;16.76;55.83
66479;BME280;53294;47.912;13.526;2023-05-23T02:57:37;95807.31;;;16.58;57.06
66479;BME280;53294;47.912;13.526;2023-05-23T03:00:04;95812.81;;;16.62;57.76
66479;BME280;53294;47.912;13.526;2023-05-23T03:02:31;95808.16;;;16.62;57.47
66479;BME280;53294;47.912;13.526;2023-05-23T03:04:57;95807.31;;;16.58;58.22
66479;BME280;53294;47.912;13.526;2023-05-23T03:07:24;95809.75;;;16.63;57.41
66479;BME280;53294;47.912;13.526;2023-05-23T03:09:54;95810.66;;;16.67;57.29
66479;BME280;53294;47.912;13.526;2023-05-23T03:12:21;95820.56;;;16.76;57.18
66479;BME280;53294;47.912;13.526;2023-05-23T03:14:48;95807.00;;;16.76;56.69
66479;BME280;53294;47.912;13.526;2023-05-23T03:17:14;95810.06;;;16.86;56.63
66479;BME280;53294;47.912;13.526;2023-05-23T03:19:41;95802.19;;;16.69;57.19
66479;BME280;53294;47.912;13.526;2023-05-23T03:22:08;95806.38;;;16.66;57.42
66479;BME280;53294;47.912;13.526;2023-05-23T03:24:35;95805.72;;;16.57;58.25
66479;BME280;53294;47.912;13.526;2023-05-23T03:27:01;95804.34;;;16.63;57.27
66479;BME280;53294;47.912;13.526;2023-05-23T03:29:28;95797.06;;;16.80;56.86
66479;BME280;53294;47.912;13.526;2023-05-23T03:31:55;95799.75;;;16.92;56.40
66479;BME280;53294;47.912;13.526;2023-05-23T03:34:21;95800.13;;;16.91;56.86
66479;BME280;53294;47.912;13.526;2023-05-23T03:36:49;95798.44;;;16.74;58.03
66479;BME280;53294;47.912;13.526;2023-05-23T03:39:16;95797.06;;;16.80;57.34
66479;BME280;53294;47.912;13.526;2023-05-23T03:41:43;95801.25;;;16.90;56.92
66479;BME280;53294;47.912;13.526;2023-05-23T03:44:10;95805.28;;;16.96;57.11
66479;BME280;53294;47.912;13.526;2023-05-23T03:46:36;95814.03;;;16.77;58.04
66479;BME280;53294;47.912;13.526;2023-05-23T03:49:05;95806.88;;;16.97;56.69
66479;BME280;53294;47.912;13.526;2023-05-23T03:51:32;95811.66;;;16.88;58.37
66479;BME280;53294;47.912;13.526;2023-05-23T03:53:59;95807.72;;;17.01;57.46
66479;BME280;53294;47.912;13.526;2023-05-23T03:56:26;95817.50;;;17.18;56.90
66479;BME280;53294;47.912;13.526;2023-05-23T03:58:52;95807.53;;;17.22;56.60
66479;BME280;53294;47.912;13.526;2023-05-23T04:01:19;95816.31;;;17.31;55.67
66479;BME280;53294;47.912;13.526;2023-05-23T04:03:46;95815.28;;;17.36;56.26
66479;BME280;53294;47.912;13.526;2023-05-23T04:06:13;95814.94;;;17.37;55.95
66479;BME280;53294;47.912;13.526;2023-05-23T04:08:40;95817.47;;;17.02;58.93
66479;BME280;53294;47.912;13.526;2023-05-23T04:11:07;95804.13;;;17.25;56.77
66479;BME280;53294;47.912;13.526;2023-05-23T04:13:34;95816.94;;;17.40;55.74
66479;BME280;53294;47.912;13.526;2023-05-23T04:16:01;95816.91;;;16.84;60.16
66479;BME280;53294;47.912;13.526;2023-05-23T04:18:31;95816.91;;;16.96;59.00
66479;BME280;53294;47.912;13.526;2023-05-23T04:21:04;95820.72;;;17.52;56.41
66479;BME280;53294;47.912;13.526;2023-05-23T04:23:31;95818.44;;;17.54;55.97
66479;BME280;53294;47.912;13.526;2023-05-23T04:25:57;95816.69;;;17.46;56.76
66479;BME280;53294;47.912;13.526;2023-05-23T04:28:27;95818.25;;;17.47;56.40
66479;BME280;53294;47.912;13.526;2023-05-23T04:30:54;95813.69;;;17.51;56.62
66479;BME280;53294;47.912;13.526;2023-05-23T04:33:21;95814.41;;;17.48;57.23
66479;BME280;53294;47.912;13.526;2023-05-23T04:35:49;95816.19;;;17.56;56.67
66479;BME280;53294;47.912;13.526;2023-05-23T04:38:16;95819.94;;;17.51;56.51
66479;BME280;53294;47.912;13.526;2023-05-23T04:40:43;95823.09;;;17.69;56.17
66479;BME280;53294;47.912;13.526;2023-05-23T04:43:09;95829.13;;;17.79;56.83
66479;BME280;53294;47.912;13.526;2023-05-23T04:45:39;95839.66;;;17.64;57.06
66479;BME280;53294;47.912;13.526;2023-05-23T04:48:08;95830.47;;;17.69;58.24
66479;BME280;53294;47.912;13.526;2023-05-23T04:50:34;95828.09;;;17.67;57.58
66479;BME280;53294;47.912;13.526;2023-05-23T04:53:03;95833.16;;;17.85;57.18
66479;BME280;53294;47.912;13.526;2023-05-23T04:55:30;95828.38;;;17.94;56.60
66479;BME280;53294;47.912;13.526;2023-05-23T04:57:57;95834.56;;;17.79;58.21
66479;BME280;53294;47.912;13.526;2023-05-23T05:00:24;95831.22;;;17.37;59.88
66479;BME280;53294;47.912;13.526;2023-05-23T05:02:51;95832.69;;;17.51;59.18
66479;BME280;53294;47.912;13.526;2023-05-23T05:05:17;95834.44;;;17.43;59.96
66479;BME280;53294;47.912;13.526;2023-05-23T05:07:44;95835.13;;;17.40;60.74
66479;BME280;53294;47.912;13.526;2023-05-23T05:10:11;95842.75;;;17.34;61.18
66479;BME280;53294;47.912;13.526;2023-05-23T05:12:46;95853.78;;;17.41;60.74
66479;BME280;53294;47.912;13.526;2023-05-23T05:15:16;95846.25;;;17.79;59.11
66479;BME280;53294;47.912;13.526;2023-05-23T05:17:43;95853.66;;;17.66;61.23
66479;BME280;53294;47.912;13.526;2023-05-23T05:20:13;95848.06;;;17.59;60.59
66479;BME280;53294;47.912;13.526;2023-05-23T05:22:40;95860.63;;;17.96;59.74
66479;BME280;53294;47.912;13.526;2023-05-23T05:25:09;95867.78;;;17.88;61.08
66479;BME280;53294;47.912;13.526;2023-05-23T05:27:36;95854.34;;;17.91;59.04
66479;BME280;53294;47.912;13.526;2023-05-23T05:30:07;95859.34;;;18.05;59.14
66479;BME280;53294;47.912;13.526;2023-05-23T05:32:34;95852.53;;;18.31;58.28
66479;BME280;53294;47.912;13.526;2023-05-23T05:35:01;95854.72;;;18.41;57.90
66479;BME280;53294;47.912;13.526;2023-05-23T05:37:28;95853.00;;;18.01;58.87
66479;BME280;53294;47.912;13.526;2023-05-23T05:39:55;95866.66;;;18.21;58.42
66479;BME280;53294;47.912;13.526;2023-05-23T05:42:22;95867.34;;;18.50;57.67
66479;BME280;53294;47.912;13.526;2023-05-23T05:44:49;95860.19;;;18.77;57.39
66479;BME280;53294;47.912;13.526;2023-05-23T05:47:16;95857.56;;;19.00;56.32
66479;BME280;53294;47.912;13.526;2023-05-23T05:49:42;95859.69;;;18.91;57.80
66479;BME280;53294;47.912;13.526;2023-05-23T05:52:09;95851.84;;;19.05;56.65
66479;BME280;53294;47.912;13.526;2023-05-23T05:54:36;95856.13;;;19.06;56.74
66479;BME280;53294;47.912;13.526;2023-05-23T05:57:03;95859.88;;;19.17;57.60
66479;BME280;53294;47.912;13.526;2023-05-23T05:59:30;95854.53;;;19.44;56.72
66479;BME280;53294;47.912;13.526;2023-05-23T06:01:58;95848.00;;;19.49;56.83
66479;BME280;53294;47.912;13.526;2023-05-23T06:04:24;95858.50;;;19.47;56.49
66479;BME280;53294;47.912;13.526;2023-05-23T06:06:51;95856.56;;;19.28;55.86
66479;BME280;53294;47.912;13.526;2023-05-23T06:09:18;95847.81;;;19.38;56.37
66479;BME280;53294;47.912;13.526;2023-05-23T06:11:45;95857.22;;;19.64;56.13
66479;BME280;53294;47.912;13.526;2023-05-23T06:14:12;95851.19;;;19.74;57.89
66479;BME280;53294;47.912;13.526;2023-05-23T06:16:39;95846.44;;;19.71;59.12
66479;BME280;53294;47.912;13.526;2023-05-23T06:19:07;95848.88;;;19.33;57.35
66479;BME280;53294;47.912;13.526;2023-05-23T06:21:34;95855.97;;;19.38;57.15
66479;BME280;53294;47.912;13.526;2023-05-23T06:24:01;95861.78;;;19.17;58.57
66479;BME280;53294;47.912;13.526;2023-05-23T06:26:28;95874.81;;;19.08;58.94
66479;BME280;53294;47.912;13.526;2023-05-23T06:28:55;95879.13;;;19.09;58.91
66479;BME280;53294;47.912;13.526;2023-05-23T06:31:21;95877.56;;;19.47;57.42
66479;BME280;53294;47.912;13.526;2023-05-23T06:33:48;95866.88;;;19.81;57.56
66479;BME280;53294;47.912;13.526;2023-05-23T06:36:15;95870.16;;;20.13;57.20
66479;BME280;53294;47.912;13.526;2023-05-23T06:38:42;95874.59;;;20.21;57.19
66479;BME280;53294;47.912;13.526;2023-05-23T06:41:08;95870.41;;;19.62;61.14
66479;BME280;53294;47.912;13.526;2023-05-23T06:43:35;95871.81;;;19.52;60.07
66479;BME280;53294;47.912;13.526;2023-05-23T06:46:02;95870.41;;;19.62;59.41
66479;BME280;53294;47.912;13.526;2023-05-23T06:48:29;95874.81;;;19.47;60.59
66479;BME280;53294;47.912;13.526;2023-05-23T06:50:56;95882.19;;;19.46;59.75
66479;BME280;53294;47.912;13.526;2023-05-23T06:53:22;95879.13;;;19.28;60.89
66479;BME280;53294;47.912;13.526;2023-05-23T06:55:49;95882.28;;;19.50;60.06
66479;BME280;53294;47.912;13.526;2023-05-23T06:58:16;95880.28;;;19.47;59.83
66479;BME280;53294;47.912;13.526;2023-05-23T07:00:42;95881.44;;;19.69;58.79
66479;BME280;53294;47.912;13.526;2023-05-23T07:03:09;95887.28;;;19.48;57.79
66479;BME280;53294;47.912;13.526;2023-05-23T07:05:36;95889.94;;;19.05;59.50
66479;BME280;53294;47.912;13.526;2023-05-23T07:08:06;95891.31;;;18.79;61.17
66479;BME280;53294;47.912;13.526;2023-05-23T07:10:33;95890.94;;;19.16;61.20
66479;BME280;53294;47.912;13.526;2023-05-23T07:13:00;95889.53;;;19.42;59.87
66479;BME280;53294;47.912;13.526;2023-05-23T07:15:27;95882.28;;;19.73;58.04
66479;BME280;53294;47.912;13.526;2023-05-23T07:17:54;95879.72;;;19.61;58.59
66479;BME280;53294;47.912;13.526;2023-05-23T07:20:21;95898.97;;;19.09;59.82
66479;BME280;53294;47.912;13.526;2023-05-23T07:22:48;95895.94;;;18.95;61.16
66479;BME280;53294;47.912;13.526;2023-05-23T07:25:17;95891.25;;;19.11;60.15
66479;BME280;53294;47.912;13.526;2023-05-23T07:27:43;95894.31;;;18.74;60.98
66479;BME280;53294;47.912;13.526;2023-05-23T07:30:10;95889.00;;;18.81;61.71
66479;BME280;53294;47.912;13.526;2023-05-23T07:32:37;95881.00;;;19.24;61.82
66479;BME280;53294;47.912;13.526;2023-05-23T07:35:04;95874.63;;;19.36;62.32
66479;BME280;53294;47.912;13.526;2023-05-23T07:37:31;95882.28;;;19.30;60.85
66479;BME280;53294;47.912;13.526;2023-05-23T07:39:57;95875.03;;;19.18;61.81
66479;BME280;53294;47.912;13.526;2023-05-23T07:42:24;95869.44;;;19.50;62.87
66479;BME280;53294;47.912;13.526;2023-05-23T07:44:51;95879.50;;;19.27;62.59
66479;BME280;53294;47.912;13.526;2023-05-23T07:47:17;95876.63;;;19.39;62.81
66479;BME280;53294;47.912;13.526;2023-05-23T07:49:44;95880.47;;;19.18;61.58
66479;BME280;53294;47.912;13.526;2023-05-23T07:52:12;95877.19;;;19.29;61.45
66479;BME280;53294;47.912;13.526;2023-05-23T07:54:39;95908.72;;;19.30;62.50
66479;BME280;53294;47.912;13.526;2023-05-23T07:57:06;95882.34;;;19.34;63.29
66479;BME280;53294;47.912;13.526;2023-05-23T07:59:32;95878.63;;;19.42;61.97
66479;BME280;53294;47.912;13.526;2023-05-23T08:01:59;95904.25;;;19.02;61.22
66479;BME280;53294;47.912;13.526;2023-05-23T08:04:27;95892.72;;;19.09;61.78
66479;BME280;53294;47.912;13.526;2023-05-23T08:06:54;95895.19;;;19.53;63.01
66479;BME280;53294;47.912;13.526;2023-05-23T08:09:24;95881.19;;;19.54;62.79
66479;BME280;53294;47.912;13.526;2023-05-23T08:11:50;95878.09;;;19.99;60.48
66479;BME280;53294;47.912;13.526;2023-05-23T08:14:17;95891.88;;;20.06;59.31
66479;BME280;53294;47.912;13.526;2023-05-23T08:16:44;95885.50;;;20.71;58.92
66479;BME280;53294;47.912;13.526;2023-05-23T08:19:11;95893.75;;;20.52;59.73
66479;BME280;53294;47.912;13.526;2023-05-23T08:21:38;95879.00;;;20.56;59.56
66479;BME280;53294;47.912;13.526;2023-05-23T08:24:05;95882.47;;;20.53;58.91
66479;BME280;53294;47.912;13.526;2023-05-23T08:26:32;95885.25;;;20.57;57.73
66479;BME280;53294;47.912;13.526;2023-05-23T08:29:02;95879.13;;;20.90;57.20
66479;BME280;53294;47.912;13.526;2023-05-23T08:31:30;95878.06;;;20.98;58.06
66479;BME280;53294;47.912;13.526;2023-05-23T08:33:57;95882.03;;;21.05;56.98
66479;BME280;53294;47.912;13.526;2023-05-23T08:36:24;95879.75;;;21.07;56.40
66479;BME280;53294;47.912;13.526;2023-05-23T08:38:51;95881.53;;;20.95;57.54
66479;BME280;53294;47.912;13.526;2023-05-23T08:41:22;95877.31;;;21.02;56.63
66479;BME280;53294;47.912;13.526;2023-05-23T08:43:49;95907.22;;;20.18;58.48
66479;BME280;53294;47.912;13.526;2023-05-23T08:46:16;95901.53;;;20.03;59.35
66479;BME280;53294;47.912;13.526;2023-05-23T08:48:50;95882.81;;;20.02;59.87
66479;BME280;53294;47.912;13.526;2023-05-23T08:51:18;95898.88;;;20.07;59.11
66479;BME280;53294;47.912;13.526;2023-05-23T08:53:47;95895.78;;;19.85;59.66
66479;BME280;53294;47.912;13.526;2023-05-23T08:56:17;95892.22;;;20.04;60.54
66479;BME280;53294;47.912;13.526;2023-05-23T08:58:45;95892.63;;;20.30;58.14
66479;BME280;53294;47.912;13.526;2023-05-23T09:01:13;95892.50;;;20.22;58.33
66479;BME280;53294;47.912;13.526;2023-05-23T09:03:40;95900.06;;;20.56;58.51
66479;BME280;53294;47.912;13.526;2023-05-23T09:06:09;95887.13;;;20.76;57.13
66479;BME280;53294;47.912;13.526;2023-05-23T09:08:36;95881.75;;;20.83;58.17
66479;BME280;53294;47.912;13.526;2023-05-23T09:11:05;95902.22;;;20.96;60.30
66479;BME280;53294;47.912;13.526;2023-05-23T09:13:32;95895.31;;;20.76;57.44
66479;BME280;53294;47.912;13.526;2023-05-23T09:16:04;95896.75;;;20.96;57.41
66479;BME280;53294;47.912;13.526;2023-05-23T09:18:39;95902.94;;;20.93;57.74
66479;BME280;53294;47.912;13.526;2023-05-23T09:21:07;95904.34;;;21.10;58.38
66479;BME280;53294;47.912;13.526;2023-05-23T09:23:36;95905.53;;;20.83;57.87
66479;BME280;53294;47.912;13.526;2023-05-23T09:26:04;95899.69;;;20.84;58.16
66479;BME280;53294;47.912;13.526;2023-05-23T09:28:35;95899.25;;;21.09;56.05
66479;BME280;53294;47.912;13.526;2023-05-23T09:31:03;95897.06;;;21.22;55.70
66479;BME280;53294;47.912;13.526;2023-05-23T09:33:46;95898.63;;;21.53;54.77
66479;BME280;53294;47.912;13.526;2023-05-23T09:36:13;95894.22;;;21.79;54.43
66479;BME280;53294;47.912;13.526;2023-05-23T09:38:42;95893.97;;;21.95;53.77
66479;BME280;53294;47.912;13.526;2023-05-23T09:41:10;95894.28;;;22.27;53.66
66479;BME280;53294;47.912;13.526;2023-05-23T09:43:49;95890.88;;;22.37;51.46
66479;BME280;53294;47.912;13.526;2023-05-23T09:46:18;95890.44;;;22.35;50.41
66479;BME280;53294;47.912;13.526;2023-05-23T09:48:49;95893.53;;;22.30;50.16
66479;BME280;53294;47.912;13.526;2023-05-23T09:51:18;95886.72;;;22.10;50.74
66479;BME280;53294;47.912;13.526;2023-05-23T09:53:49;95885.00;;;21.94;51.20
66479;BME280;53294;47.912;13.526;2023-05-23T09:56:16;95887.66;;;21.87;51.89
66479;BME280;53294;47.912;13.526;2023-05-23T09:58:46;95883.28;;;21.79;51.25
66479;BME280;53294;47.912;13.526;2023-05-23T10:01:13;95882.06;;;21.73;52.02
66479;BME280;53294;47.912;13.526;2023-05-23T10:03:53;95892.38;;;21.90;51.33
66479;BME280;53294;47.912;13.526;2023-05-23T10:06:36;95893.28;;;21.64;52.63
66479;BME280;53294;47.912;13.526;2023-05-23T10:09:09;95893.81;;;21.77;54.75
66479;BME280;53294;47.912;13.526;2023-05-23T10:14:34;95893.75;;;21.69;57.95
66479;BME280;53294;47.912;13.526;2023-05-23T10:17:06;95888.19;;;21.62;58.42
66479;BME280;53294;47.912;13.526;2023-05-23T10:19:45;95890.66;;;21.75;58.55
66479;BME280;53294;47.912;13.526;2023-05-23T10:22:14;95872.09;;;21.91;58.77
66479;BME280;53294;47.912;13.526;2023-05-23T10:24:44;95872.09;;;21.91;59.54
66479;BME280;53294;47.912;13.526;2023-05-23T10:27:10;95870.69;;;22.12;58.69
66479;BME280;53294;47.912;13.526;2023-05-23T10:29:37;95864.16;;;22.23;59.20
66479;BME280;53294;47.912;13.526;2023-05-23T10:32:06;95860.91;;;22.55;58.68
66479;BME280;53294;47.912;13.526;2023-05-23T10:37:38;95851.53;;;22.60;55.24
66479;BME280;53294;47.912;13.526;2023-05-23T10:43:19;95848.72;;;23.16;52.27
66479;BME280;53294;47.912;13.526;2023-05-23T10:45:48;95852.25;;;23.16;51.44
66479;BME280;53294;47.912;13.526;2023-05-23T10:48:34;95856.69;;;23.57;50.86
66479;BME280;53294;47.912;13.526;2023-05-23T10:51:07;95864.47;;;23.40;53.67
66479;BME280;53294;47.912;13.526;2023-05-23T10:53:36;95868.09;;;23.80;50.67
66479;BME280;53294;47.912;13.526;2023-05-23T10:56:08;95885.72;;;22.84;52.40
66479;BME280;53294;47.912;13.526;2023-05-23T10:58:37;95884.38;;;22.60;53.08
66479;BME280;53294;47.912;13.526;2023-05-23T11:01:06;95884.69;;;21.31;57.44
66479;BME280;53294;47.912;13.526;2023-05-23T11:03:36;95883.88;;;20.97;59.51
66479;BME280;53294;47.912;13.526;2023-05-23T11:06:04;95878.97;;;21.10;59.68
66479;BME280;53294;47.912;13.526;2023-05-23T11:08:38;95885.53;;;21.36;58.08
66479;BME280;53294;47.912;13.526;2023-05-23T11:11:14;95868.91;;;21.85;55.90
66479;BME280;53294;47.912;13.526;2023-05-23T11:13:55;95875.59;;;22.33;54.30
66479;BME280;53294;47.912;13.526;2023-05-23T11:16:31;95866.50;;;22.73;50.92
66479;BME280;53294;47.912;13.526;2023-05-23T11:22:06;95868.22;;;23.03;47.38
66479;BME280;53294;47.912;13.526;2023-05-23T11:24:50;95863.66;;;23.36;48.54
66479;BME280;53294;47.912;13.526;2023-05-23T11:27:38;95866.84;;;23.45;45.64
66479;BME280;53294;47.912;13.526;2023-05-23T11:30:09;95881.34;;;23.57;47.14
66479;BME280;53294;47.912;13.526;2023-05-23T11:32:40;95880.59;;;23.67;46.32
66479;BME280;53294;47.912;13.526;2023-05-23T11:35:09;95877.81;;;23.60;46.35
66479;BME280;53294;47.912;13.526;2023-05-23T11:37:37;95877.81;;;23.60;45.86
66479;BME280;53294;47.912;13.526;2023-05-23T11:40:34;95879.38;;;23.50;46.25
66479;BME280;53294;47.912;13.526;2023-05-23T11:43:04;95886.31;;;23.22;48.28
66479;BME280;53294;47.912;13.526;2023-05-23T11:45:32;95902.69;;;23.11;48.92
66479;BME280;53294;47.912;13.526;2023-05-23T11:48:10;95891.41;;;23.17;49.82
66479;BME280;53294;47.912;13.526;2023-05-23T11:50:49;95892.22;;;23.35;49.21
66479;BME280;53294;47.912;13.526;2023-05-23T11:53:17;95897.34;;;23.44;50.81
66479;BME280;53294;47.912;13.526;2023-05-23T11:58:16;95884.13;;;23.71;50.18
66479;BME280;53294;47.912;13.526;2023-05-23T12:00:46;95889.63;;;23.78;50.55
66479;BME280;53294;47.912;13.526;2023-05-23T12:03:13;95892.84;;;23.91;50.87
66479;BME280;53294;47.912;13.526;2023-05-23T12:05:42;95891.97;;;23.80;51.15
66479;BME280;53294;47.912;13.526;2023-05-23T12:08:12;95892.03;;;23.91;51.21
66479;BME280;53294;47.912;13.526;2023-05-23T12:11:12;95895.09;;;23.71;51.64
66479;BME280;53294;47.912;13.526;2023-05-23T12:13:40;95893.50;;;23.63;52.30
66479;BME280;53294;47.912;13.526;2023-05-23T12:16:07;95891.16;;;23.58;51.84
66479;BME280;53294;47.912;13.526;2023-05-23T12:18:36;95894.28;;;23.60;51.83
66479;BME280;53294;47.912;13.526;2023-05-23T12:21:04;95897.13;;;23.89;51.51
66479;BME280;53294;47.912;13.526;2023-05-23T12:23:34;95901.38;;;23.68;51.93
66479;BME280;53294;47.912;13.526;2023-05-23T12:26:05;95886.53;;;23.91;51.99
66479;BME280;53294;47.912;13.526;2023-05-23T12:28:37;95892.75;;;23.73;50.50
66479;BME280;53294;47.912;13.526;2023-05-23T12:31:09;95893.13;;;23.75;51.70
66479;BME280;53294;47.912;13.526;2023-05-23T12:33:41;95899.03;;;23.77;52.18
66479;BME280;53294;47.912;13.526;2023-05-23T12:36:11;95896.69;;;23.83;52.78
66479;BME280;53294;47.912;13.526;2023-05-23T12:38:40;95890.38;;;23.61;52.72
66479;BME280;53294;47.912;13.526;2023-05-23T12:41:14;95895.84;;;23.61;52.88
66479;BME280;53294;47.912;13.526;2023-05-23T12:43:49;95902.94;;;23.76;53.21
66479;BME280;53294;47.912;13.526;2023-05-23T12:46:20;95898.66;;;23.79;53.37
66479;BME280;53294;47.912;13.526;2023-05-23T12:48:48;95906.06;;;23.71;52.86
66479;BME280;53294;47.912;13.526;2023-05-23T12:51:15;95893.50;;;23.56;52.75
66479;BME280;53294;47.912;13.526;2023-05-23T12:53:42;95898.13;;;23.37;52.02
66479;BME280;53294;47.912;13.526;2023-05-23T12:56:09;95894.28;;;23.53;51.55
66479;BME280;53294;47.912;13.526;2023-05-23T12:58:36;95884.44;;;23.44;51.59
66479;BME280;53294;47.912;13.526;2023-05-23T13:01:03;95876.97;;;23.41;51.51
66479;BME280;53294;47.912;13.526;2023-05-23T13:03:31;95891.88;;;23.44;50.88
66479;BME280;53294;47.912;13.526;2023-05-23T13:05:58;95895.84;;;23.57;51.19
66479;BME280;53294;47.912;13.526;2023-05-23T13:08:25;95898.94;;;23.45;51.50
66479;BME280;53294;47.912;13.526;2023-05-23T13:10:52;95902.06;;;23.43;50.02
66479;BME280;53294;47.912;13.526;2023-05-23T13:13:19;95902.84;;;23.47;49.65
66479;BME280;53294;47.912;13.526;2023-05-23T13:15:46;95911.25;;;23.06;49.94